Time;durP1;ratioP1;P1;durP2;ratioP2;P2;SDS_P1;SDS_P2;PMS_P1;PMS_P2;Temp;Humidity;BMP_temperature;BMP_pressure;BME280_temperature;BME280_humidity;BME280_pressure;Samples;Min_cycle;Max_cycle;Signal;HPM_P1;HPM_P2
2023/01/13 00:01:35;;;;;;;31.35;14.40;;;;;;;-1.03;94.63;100069.25;4858686;28;20466;-68
2023/01/13 00:04:06;;;;;;;30.15;13.65;;;;;;;-0.86;94.79;100072.28;4858295;28;20207;-69
2023/01/13 00:06:36;;;;;;;36.00;14.80;;;;;;;-0.73;95.14;100069.19;4859840;28;20061;-68
2023/01/13 00:09:07;;;;;;;34.92;15.07;;;;;;;-0.62;94.84;100064.38;4866246;28;20048;-64
2023/01/13 00:11:38;;;;;;;30.80;13.77;;;;;;;-0.54;94.72;100060.28;4870409;28;20135;-67
2023/01/13 00:14:10;;;;;;;35.58;14.05;;;;;;;-0.47;93.92;100056.19;4862258;28;20111;-66
2023/01/13 00:16:40;;;;;;;35.08;15.48;;;;;;;-0.40;94.11;100041.78;4866484;28;20046;-65
2023/01/13 00:19:11;;;;;;;35.85;15.25;;;;;;;-0.36;93.88;100046.16;4862122;28;20423;-64
2023/01/13 00:21:42;;;;;;;37.03;14.10;;;;;;;-0.29;93.75;100027.50;4869231;28;20061;-69
2023/01/13 00:24:13;;;;;;;28.63;12.23;;;;;;;-0.16;93.49;100029.53;4855628;28;20451;-64
2023/01/13 00:26:44;;;;;;;27.92;11.57;;;;;;;-0.12;93.43;100022.78;4860659;28;20103;-67
2023/01/13 00:29:16;;;;;;;30.02;12.70;;;;;;;0.01;93.30;100023.91;4858570;28;20118;-66
2023/01/13 00:31:51;;;;;;;35.30;13.30;;;;;;;0.09;93.05;100012.09;4858383;28;20064;-67
2023/01/13 00:34:22;;;;;;;29.25;13.82;;;;;;;0.18;92.36;100012.31;4858610;28;20144;-63
2023/01/13 00:36:53;;;;;;;32.55;14.52;;;;;;;0.23;92.02;100003.00;4855235;28;20059;-65
2023/01/13 00:39:24;;;;;;;35.30;15.10;;;;;;;0.27;91.79;99991.94;4861026;28;20055;-65
2023/01/13 00:44:43;;;;;;;32.58;14.70;;;;;;;0.36;91.26;99971.56;4845325;28;20065;-63
2023/01/13 00:47:14;;;;;;;40.63;14.43;;;;;;;0.47;90.83;99963.19;4848130;28;20708;-65
2023/01/13 00:49:45;;;;;;;31.88;12.98;;;;;;;0.55;90.84;99956.47;4855367;28;20066;-64
2023/01/13 00:52:16;;;;;;;35.13;13.82;;;;;;;0.60;90.53;99948.03;4870675;28;20380;-66
2023/01/13 00:54:47;;;;;;;39.63;16.00;;;;;;;0.68;90.29;99939.59;4856795;28;20053;-68
2023/01/13 00:57:19;;;;;;;35.22;16.73;;;;;;;0.72;89.34;99957.66;4856324;28;20069;-64
2023/01/13 00:59:51;;;;;;;34.58;16.90;;;;;;;0.69;88.70;99960.19;4857620;28;20469;-64
2023/01/13 01:02:22;;;;;;;41.97;17.98;;;;;;;0.71;88.56;99963.66;4859693;28;20053;-62
2023/01/13 01:04:53;;;;;;;35.08;16.17;;;;;;;0.75;88.89;99944.88;4864671;28;20069;-63
2023/01/13 01:07:24;;;;;;;42.22;19.05;;;;;;;0.85;88.41;99930.50;4860542;28;20069;-66
2023/01/13 01:09:55;;;;;;;45.65;20.35;;;;;;;0.90;88.13;99923.72;4869033;28;20083;-63
2023/01/13 01:12:25;;;;;;;47.47;19.75;;;;;;;0.93;87.34;99908.31;4872629;28;20057;-63
2023/01/13 01:14:57;;;;;;;40.28;20.52;;;;;;;0.97;87.44;99911.81;4856764;28;20080;-62
2023/01/13 01:17:29;;;;;;;43.83;20.70;;;;;;;0.77;86.94;99891.75;4854831;28;20057;-62
2023/01/13 01:19:59;;;;;;;44.00;20.55;;;;;;;0.91;85.93;99919.44;4856551;28;20045;-62
2023/01/13 01:22:30;;;;;;;46.47;19.70;;;;;;;0.74;86.07;99925.13;4856979;28;20058;-61
2023/01/13 01:25:00;;;;;;;49.65;20.83;;;;;;;0.59;86.18;99914.56;4857147;28;20050;-59
2023/01/13 01:27:31;;;;;;;47.33;20.45;;;;;;;0.51;86.41;99913.59;4858093;28;20057;-61
2023/01/13 01:30:03;;;;;;;45.58;21.77;;;;;;;0.40;86.67;99903.06;4856271;28;20081;-60
2023/01/13 01:32:35;;;;;;;42.72;22.20;;;;;;;0.25;86.74;99862.56;4848108;28;20481;-60
2023/01/13 01:35:06;;;;;;;44.08;21.08;;;;;;;0.28;86.81;99874.59;4858384;28;20053;-60
2023/01/13 01:37:37;;;;;;;42.63;20.52;;;;;;;0.29;86.95;99864.34;4858384;28;20140;-61
2023/01/13 01:40:08;;;;;;;35.00;17.35;;;;;;;0.41;87.50;99869.69;4860818;28;20046;-60
2023/01/13 01:45:31;;;;;;;40.38;18.48;;;;;;;0.64;87.51;99858.97;4849670;28;20107;-59
2023/01/13 01:48:05;;;;;;;35.03;18.58;;;;;;;0.78;87.46;99836.06;4860018;28;20600;-59
2023/01/13 01:50:36;;;;;;;39.67;18.58;;;;;;;0.82;87.26;99818.13;4849245;28;20049;-58
2023/01/13 01:53:13;;;;;;;33.50;17.65;;;;;;;0.82;87.78;99807.84;4859980;28;20061;-56
2023/01/13 01:55:44;;;;;;;43.22;17.02;;;;;;;0.99;87.62;99809.78;4853816;28;20549;-58
2023/01/13 01:58:19;;;;;;;34.03;16.23;;;;;;;1.13;88.11;99777.41;4860712;28;20057;-57
2023/01/13 02:00:52;;;;;;;27.85;14.45;;;;;;;1.29;87.82;99774.19;4862137;28;20045;-57
2023/01/13 02:03:23;;;;;;;33.45;14.48;;;;;;;1.39;87.42;99774.31;4857912;28;20063;-58
2023/01/13 02:05:54;;;;;;;36.97;13.57;;;;;;;1.43;86.96;99750.34;4863369;28;20054;-58
2023/01/13 02:08:24;;;;;;;31.40;15.32;;;;;;;1.60;86.38;99764.28;4861082;28;20049;-59
2023/01/13 02:10:55;;;;;;;26.58;13.15;;;;;;;1.61;86.43;99776.31;4860432;28;20049;-59
2023/01/13 02:13:25;;;;;;;35.65;14.55;;;;;;;1.61;85.95;99776.31;4861114;28;20080;-59
2023/01/13 02:16:04;;;;;;;40.50;16.40;;;;;;;1.55;85.84;99755.66;4860780;28;20450;-55
2023/01/13 02:18:51;;;;;;;45.95;19.30;;;;;;;1.53;85.85;99767.63;4851623;28;20045;-58
2023/01/13 02:21:42;;;;;;;55.85;20.92;;;;;;;1.37;85.79;99756.28;4850380;28;20407;-57
2023/01/13 02:24:54;;;;;;;43.55;20.83;;;;;;;1.28;85.75;99754.47;4850788;28;20123;-57
2023/01/13 02:27:44;;;;;;;50.67;22.88;;;;;;;1.01;85.64;99748.94;4840700;28;20050;-60
2023/01/13 02:33:29;;;;;;;45.13;21.75;;;;;;;0.80;86.95;99763.22;4850497;28;20049;-58
2023/01/13 02:36:06;;;;;;;54.78;24.42;;;;;;;0.68;87.09;99768.19;4849988;28;20494;-58
2023/01/13 02:38:44;;;;;;;45.25;21.58;;;;;;;0.54;87.07;99778.22;4850169;28;20084;-58
2023/01/13 02:44:29;;;;;;;46.15;22.83;;;;;;;0.22;87.90;99772.56;4777674;28;20663;-57
2023/01/13 02:47:07;;;;;;;56.75;23.88;;;;;;;0.18;88.51;99776.78;4772815;28;20051;-59
2023/01/13 02:49:41;;;;;;;50.22;21.77;;;;;;;-0.10;88.81;99734.34;4776597;28;20235;-58
2023/01/13 02:52:14;;;;;;;51.15;23.27;;;;;;;-0.16;88.65;99729.06;4784713;28;20136;-57
2023/01/13 02:54:49;;;;;;;47.22;22.88;;;;;;;0.01;89.03;99756.78;4775951;28;20054;-58
2023/01/13 02:57:23;;;;;;;55.42;22.35;;;;;;;-0.09;89.53;99745.47;4786226;28;20062;-58
2023/01/13 02:59:56;;;;;;;47.25;21.67;;;;;;;-0.11;89.31;99748.00;4781849;28;22434;-58
2023/01/13 03:02:29;;;;;;;53.05;21.73;;;;;;;-0.15;90.02;99735.97;4786689;28;20126;-58
2023/01/13 03:05:01;;;;;;;55.83;22.98;;;;;;;-0.13;90.46;99734.25;4785617;28;20472;-58
2023/01/13 03:07:55;;;;;;;50.75;22.17;;;;;;;-0.08;90.59;99737.78;4786639;28;20091;-58
2023/01/13 03:10:46;;;;;;;58.25;23.35;;;;;;;0.05;90.97;99722.56;4765025;28;20043;-58
2023/01/13 03:13:29;;;;;;;53.42;22.00;;;;;;;0.19;90.86;99726.25;4779149;28;20065;-59
2023/01/13 03:16:11;;;;;;;59.25;24.58;;;;;;;0.30;90.67;99724.75;4829303;28;20141;-58
2023/01/13 03:18:51;;;;;;;55.35;21.95;;;;;;;0.41;90.46;99712.91;4848172;28;20123;-57
2023/01/13 03:21:26;;;;;;;52.60;21.67;;;;;;;0.51;90.28;99710.50;4857118;28;20050;-58
2023/01/13 03:24:04;;;;;;;58.17;23.10;;;;;;;0.48;90.42;99692.47;4848024;28;20411;-58
2023/01/13 03:26:41;;;;;;;56.38;24.25;;;;;;;0.55;90.05;99694.25;4848787;28;20061;-58
2023/01/13 03:29:19;;;;;;;56.45;21.95;;;;;;;0.35;90.14;99651.16;4856650;28;25074;-56
2023/01/13 03:31:58;;;;;;;44.20;19.50;;;;;;;0.58;90.29;99691.75;4859863;28;20064;-57
2023/01/13 03:34:35;;;;;;;44.38;18.40;;;;;;;0.67;90.35;99679.00;4849766;28;20054;-58
2023/01/13 03:37:09;;;;;;;44.50;18.17;;;;;;;0.75;90.25;99677.44;4850104;28;20056;-58
2023/01/13 03:39:45;;;;;;;44.00;18.48;;;;;;;0.81;90.07;99671.50;4871399;28;20063;-57
2023/01/13 03:42:20;;;;;;;47.05;17.90;;;;;;;0.88;89.94;99664.75;4847365;28;20053;-57
2023/01/13 03:44:55;;;;;;;49.50;18.02;;;;;;;0.91;89.57;99662.19;4859686;28;20053;-58
2023/01/13 03:47:32;;;;;;;35.80;16.27;;;;;;;0.97;89.48;99657.13;4850135;28;20064;-57
2023/01/13 03:50:07;;;;;;;32.35;14.07;;;;;;;1.04;89.18;99657.22;4857973;28;20091;-58
2023/01/13 03:52:42;;;;;;;36.65;14.75;;;;;;;1.07;89.38;99659.84;4857637;28;20152;-58
2023/01/13 03:55:17;;;;;;;34.70;13.80;;;;;;;1.04;88.73;99639.19;4847190;28;20058;-58
2023/01/13 03:57:53;;;;;;;34.15;13.55;;;;;;;0.92;88.68;99617.63;4857481;28;20045;-58
2023/01/13 04:00:27;;;;;;;36.92;13.35;;;;;;;1.10;88.80;99638.44;4850365;28;20057;-58
2023/01/13 04:03:05;;;;;;;35.33;13.18;;;;;;;1.11;89.00;99622.13;4855047;28;20400;-58
2023/01/13 04:05:42;;;;;;;34.60;12.38;;;;;;;1.14;88.80;99611.88;4848838;28;20546;-58
2023/01/13 04:08:20;;;;;;;29.50;12.38;;;;;;;1.18;88.73;99611.06;4853998;28;20059;-58
2023/01/13 04:10:54;;;;;;;34.33;13.70;;;;;;;1.23;88.48;99604.25;4858992;28;20046;-58
2023/01/13 04:13:29;;;;;;;28.42;13.02;;;;;;;1.29;88.37;99594.03;4848805;28;20045;-58
2023/01/13 04:16:06;;;;;;;31.55;11.88;;;;;;;1.35;88.33;99592.34;4858818;28;20119;-57
2023/01/13 04:18:39;;;;;;;30.98;13.00;;;;;;;1.25;88.45;99552.81;4848941;28;20407;-58
2023/01/13 04:21:12;;;;;;;32.75;12.80;;;;;;;1.46;88.10;99577.88;4856526;28;20045;-58
2023/01/13 04:23:43;;;;;;;27.90;11.35;;;;;;;1.54;87.82;99568.53;4851052;28;21568;-57
2023/01/13 04:26:14;;;;;;;30.13;12.90;;;;;;;1.63;87.40;99568.59;4867448;28;20104;-57
2023/01/13 04:28:44;;;;;;;32.15;11.68;;;;;;;1.73;86.93;99567.84;4871101;28;20457;-58
2023/01/13 04:31:15;;;;;;;24.27;10.85;;;;;;;1.76;86.13;99553.25;4861732;28;20052;-57
2023/01/13 04:33:45;;;;;;;29.88;10.95;;;;;;;1.81;86.17;99551.56;4861540;28;20155;-58
2023/01/13 04:36:18;;;;;;;27.23;11.60;;;;;;;1.84;86.12;99547.28;4862233;28;20153;-58
2023/01/13 04:38:49;;;;;;;35.08;11.82;;;;;;;1.94;85.69;99553.38;4863202;28;20068;-57
2023/01/13 04:41:19;;;;;;;31.27;11.18;;;;;;;2.03;85.63;99553.47;4857991;28;20464;-56
2023/01/13 04:43:50;;;;;;;26.73;11.60;;;;;;;2.03;85.28;99548.31;4854975;28;20092;-56
2023/01/13 04:46:21;;;;;;;26.00;11.57;;;;;;;2.04;85.30;99544.84;4855295;28;20053;-57
2023/01/13 04:48:51;;;;;;;25.25;10.95;;;;;;;1.84;85.10;99515.53;4857480;28;20104;-57
2023/01/13 04:51:24;;;;;;;30.92;12.05;;;;;;;2.04;85.19;99544.84;4857823;28;20808;-57
2023/01/13 04:53:54;;;;;;;28.27;12.38;;;;;;;2.06;85.10;99540.59;4848577;28;20057;-57
2023/01/13 04:56:25;;;;;;;24.92;12.68;;;;;;;2.04;85.21;99550.00;4858309;28;20057;-58
2023/01/13 04:58:55;;;;;;;30.55;12.40;;;;;;;2.05;84.86;99556.06;4858486;28;20061;-58
2023/01/13 05:01:26;;;;;;;24.98;12.40;;;;;;;2.05;85.09;99556.06;4859070;28;20053;-58
2023/01/13 05:03:56;;;;;;;28.42;11.85;;;;;;;1.93;84.67;99541.38;4858555;28;20068;-59
2023/01/13 05:06:29;;;;;;;34.58;13.15;;;;;;;2.02;84.59;99546.59;4857806;28;20392;-59
2023/01/13 05:08:59;;;;;;;29.23;12.15;;;;;;;1.86;84.57;99539.59;4858091;28;20061;-59
2023/01/13 05:17:05;;;;;;;30.85;13.85;;;;;;;2.00;84.91;99558.59;4851580;28;20057;-57
2023/01/13 05:19:37;;;;;;;26.02;12.85;;;;;;;2.00;84.86;99543.13;4862076;28;20058;-58
2023/01/13 05:27:45;;;;;;;33.40;14.43;;;;;;;1.92;85.40;99539.63;4841511;28;20046;-59
2023/01/13 05:30:16;;;;;;;35.38;15.25;;;;;;;1.80;85.37;99519.81;4861314;28;20049;-59
2023/01/13 05:32:46;;;;;;;33.85;15.25;;;;;;;1.89;85.30;99544.75;4862675;28;20365;-58
2023/01/13 05:35:17;;;;;;;36.10;14.98;;;;;;;1.79;85.76;99524.94;4862282;28;20392;-59
2023/01/13 05:37:50;;;;;;;35.83;14.40;;;;;;;1.71;85.97;99541.19;4861965;28;20054;-58
2023/01/13 05:43:21;;;;;;;36.55;15.05;;;;;;;1.78;86.48;99530.97;4855325;28;20050;-59
2023/01/13 05:45:56;;;;;;;35.33;15.25;;;;;;;1.82;86.70;99537.84;4850787;28;20054;-56
2023/01/13 05:48:29;;;;;;;40.65;17.25;;;;;;;1.71;86.49;99512.88;4851731;28;20068;-59
2023/01/13 05:51:00;;;;;;;33.10;14.80;;;;;;;1.80;86.68;99518.91;4861057;28;20427;-59
2023/01/13 05:53:33;;;;;;;37.40;16.27;;;;;;;1.73;86.32;99511.16;4861112;28;20050;-59
2023/01/13 05:56:05;;;;;;;37.05;14.90;;;;;;;1.69;86.56;99505.97;4851753;28;20053;-59
2023/01/13 05:58:36;;;;;;;34.83;13.68;;;;;;;1.75;86.69;99510.31;4861088;28;20093;-59
2023/01/13 06:01:08;;;;;;;41.35;14.40;;;;;;;1.46;86.88;99477.50;4862088;28;20141;-58
2023/01/13 06:03:39;;;;;;;31.73;14.00;;;;;;;1.62;87.00;99510.25;4861188;28;20116;-58
2023/01/13 06:06:10;;;;;;;29.27;13.57;;;;;;;1.68;86.93;99514.56;4860708;28;20402;-59
2023/01/13 06:08:42;;;;;;;27.00;13.07;;;;;;;1.65;86.81;99510.25;4861111;28;20053;-59
2023/01/13 06:11:13;;;;;;;36.58;14.77;;;;;;;1.61;86.90;99497.34;4857975;28;20238;-58
2023/01/13 06:13:43;;;;;;;38.70;15.25;;;;;;;1.55;87.34;99500.75;4865293;28;20047;-58
2023/01/13 06:16:14;;;;;;;43.92;19.52;;;;;;;1.48;87.39;99501.53;4870785;28;20193;-59
2023/01/13 06:18:44;;;;;;;46.63;21.48;;;;;;;1.36;87.62;99502.28;4865945;28;20083;-59
2023/01/13 06:21:15;;;;;;;33.83;15.60;;;;;;;1.31;88.38;99503.97;4861497;28;20672;-59
2023/01/13 06:23:47;;;;;;;40.45;17.20;;;;;;;1.23;88.94;99511.63;4860594;28;20061;-58
2023/01/13 06:26:21;;;;;;;30.75;14.10;;;;;;;1.19;89.22;99521.88;4867526;28;20049;-60
2023/01/13 06:28:52;;;;;;;32.58;14.23;;;;;;;1.13;89.11;99530.41;4875263;28;20557;-59
2023/01/13 06:31:22;;;;;;;34.65;15.85;;;;;;;1.10;89.54;99535.53;4860038;28;20121;-58
2023/01/13 06:33:57;;;;;;;28.60;13.88;;;;;;;1.03;90.07;99520.88;4863627;28;20057;-59
2023/01/13 06:36:32;;;;;;;29.73;13.82;;;;;;;1.01;90.21;99527.69;4857651;28;20057;-57
2023/01/13 06:39:05;;;;;;;28.90;13.98;;;;;;;1.04;90.64;99538.00;4868652;28;20387;-56
2023/01/13 06:44:25;;;;;;;47.50;18.35;;;;;;;1.00;91.48;99531.09;4844628;28;20062;-59
2023/01/13 06:46:55;;;;;;;39.17;16.88;;;;;;;0.98;91.56;99525.09;4858300;28;20053;-58
2023/01/13 06:49:26;;;;;;;32.60;15.85;;;;;;;0.92;92.21;99515.59;4857231;28;20054;-58
2023/01/13 06:51:57;;;;;;;35.13;15.38;;;;;;;0.85;92.61;99504.38;4855459;28;20068;-58
2023/01/13 06:54:29;;;;;;;29.42;14.20;;;;;;;0.87;92.46;99506.97;4856728;28;20710;-59
2023/01/13 06:57:00;;;;;;;34.33;14.60;;;;;;;0.84;92.99;99507.78;4860095;28;20065;-59
2023/01/13 06:59:33;;;;;;;32.78;15.20;;;;;;;0.81;92.94;99518.06;4860475;28;20068;-58
2023/01/13 07:02:04;;;;;;;37.40;15.63;;;;;;;0.22;93.07;99423.13;4854145;28;20047;-56
2023/01/13 07:04:34;;;;;;;31.40;16.30;;;;;;;0.75;93.45;99520.56;4860457;28;20059;-58
2023/01/13 07:07:06;;;;;;;30.17;14.80;;;;;;;0.72;93.61;99517.09;4860998;28;20490;-58
2023/01/13 07:09:38;;;;;;;37.92;15.18;;;;;;;0.72;93.92;99512.78;4860542;28;20061;-59
2023/01/13 07:12:09;;;;;;;32.60;14.13;;;;;;;0.73;94.10;99503.41;4859032;28;20061;-59
2023/01/13 07:17:27;;;;;;;30.17;13.52;;;;;;;0.73;94.09;99508.53;4856920;28;20053;-59
2023/01/13 07:20:00;;;;;;;31.25;12.95;;;;;;;0.73;94.06;99504.25;4857183;28;20142;-59
2023/01/13 07:22:31;;;;;;;30.60;13.73;;;;;;;0.64;93.81;99491.28;4859064;28;20123;-58
2023/01/13 07:25:03;;;;;;;31.30;14.60;;;;;;;0.73;93.98;99501.69;4849839;28;20054;-58
2023/01/13 07:27:33;;;;;;;40.38;14.70;;;;;;;0.75;93.60;99501.69;4853993;28;20429;-59
2023/01/13 07:30:04;;;;;;;31.75;14.05;;;;;;;0.69;93.68;99506.78;4846749;28;20488;-58
2023/01/13 07:32:35;;;;;;;36.38;15.90;;;;;;;0.70;93.52;99504.22;4832665;28;20556;-58
2023/01/13 07:35:06;;;;;;;36.90;14.48;;;;;;;0.71;93.29;99505.94;4833110;28;20058;-58
2023/01/13 07:37:38;;;;;;;31.25;14.85;;;;;;;0.67;92.87;99511.88;4832587;28;20130;-60
2023/01/13 07:40:12;;;;;;;38.97;14.80;;;;;;;0.57;92.69;99497.19;4830095;28;20065;-58
2023/01/13 07:45:30;;;;;;;41.60;16.30;;;;;;;0.64;92.70;99515.28;4822866;28;20466;-59
2023/01/13 07:48:00;;;;;;;35.80;15.45;;;;;;;0.65;92.48;99521.31;4832945;28;20082;-58
2023/01/13 07:50:31;;;;;;;34.13;14.93;;;;;;;0.63;92.44;99518.72;4832518;28;20065;-59
2023/01/13 07:53:01;;;;;;;38.08;15.50;;;;;;;0.62;92.18;99523.81;4832085;28;20058;-58
2023/01/13 07:55:33;;;;;;;36.75;15.68;;;;;;;0.57;91.49;99512.63;4829045;28;20088;-58
2023/01/13 07:58:05;;;;;;;41.08;17.75;;;;;;;0.54;91.17;99512.59;4822457;28;20105;-58
2023/01/13 08:00:36;;;;;;;40.40;16.50;;;;;;;0.53;91.21;99516.03;4831479;28;20769;-59
2023/01/13 08:03:10;;;;;;;43.22;18.60;;;;;;;0.44;90.56;99516.75;4823975;28;20081;-59
2023/01/13 08:05:40;;;;;;;45.28;19.67;;;;;;;0.38;90.16;99511.56;4832104;28;20073;-58
2023/01/13 08:08:13;;;;;;;43.10;19.17;;;;;;;0.28;89.92;99505.44;4833517;28;20381;-59
2023/01/13 08:10:46;;;;;;;50.33;21.60;;;;;;;0.27;89.60;99529.38;4823546;28;20102;-60
2023/01/13 08:13:26;;;;;;;50.20;20.15;;;;;;;0.20;89.62;99519.84;4826085;28;20808;-59
2023/01/13 08:16:02;;;;;;;46.95;18.92;;;;;;;-0.06;89.39;99494.69;4831936;28;20081;-59
2023/01/13 08:18:57;;;;;;;39.67;17.55;;;;;;;0.11;89.81;99527.47;4826345;28;20128;-59
2023/01/13 08:22:38;;;;;;;;;;;;;;;;;;;;;
2023/01/13 08:38:06;;;;;;;42.22;17.13;;;;;;;-0.57;89.75;99541.84;4687456;29;20633;-60
2023/01/13 09:17:50;;;;;;;46.20;20.58;;;;;;;-1.58;88.90;99540.78;4631001;29;20066;-58
2023/01/13 09:26:23;;;;;;;41.67;17.73;;;;;;;-2.39;90.57;99475.03;4644910;29;20062;-60
2023/01/13 09:36:54;;;;;;;50.78;19.23;;;;;;;-2.36;92.94;99531.38;4673068;29;20062;-61
2023/01/13 09:39:25;;;;;;;42.85;17.85;;;;;;;-2.34;93.77;99528.88;4682913;29;20498;-60
2023/01/13 09:44:49;;;;;;;;;;;;;;;-2.47;94.88;99517.44;4673328;29;20061;-58
2023/01/13 09:47:29;;;;;;;46.13;21.38;;;;;;;-2.51;95.18;99520.78;4682776;29;20008;-59
2023/01/13 09:50:18;;;;;;;39.10;18.17;;;;;;;-2.53;95.81;99522.44;4692034;29;20056;-59
2023/01/13 09:52:52;;;;;;;42.40;17.05;;;;;;;-2.48;96.44;99520.84;4776556;28;20058;-60
2023/01/13 09:55:29;;;;;;;39.40;18.02;;;;;;;-2.49;96.31;99508.91;4797239;28;20100;-59
2023/01/13 09:58:04;;;;;;;35.10;15.98;;;;;;;-2.53;96.62;99512.19;4800951;28;20048;-60
2023/01/13 10:00:45;;;;;;;35.17;15.32;;;;;;;-2.48;96.91;99510.63;4796523;28;20278;-60
2023/01/13 10:03:23;;;;;;;33.53;15.10;;;;;;;-2.42;97.45;99500.50;4833377;28;20057;-60
2023/01/13 10:06:03;;;;;;;37.08;15.95;;;;;;;-2.32;97.32;99516.94;4851356;28;20078;-60
2023/01/13 10:08:38;;;;;;;41.40;15.48;;;;;;;-2.69;97.07;99470.06;4849554;28;20122;-60
2023/01/13 10:14:15;;;;;;;53.22;22.55;;;;;;;-2.49;97.06;99514.88;4845224;28;20070;-60
2023/01/13 10:16:58;;;;;;;51.00;23.67;;;;;;;-2.68;96.77;99503.31;4847768;28;20038;-60
2023/01/13 10:19:34;;;;;;;41.70;18.60;;;;;;;-2.59;97.11;99522.31;4832821;28;20446;-60
2023/01/13 10:22:25;;;;;;;27.70;14.95;;;;;;;-2.59;96.71;99522.31;4846949;28;20488;-60
2023/01/13 10:25:32;;;;;;;41.58;17.20;;;;;;;-2.70;96.68;99515.19;4847394;28;20152;-60
2023/01/13 10:28:11;;;;;;;33.15;16.38;;;;;;;-2.75;96.77;99516.78;4810964;28;20407;-60
2023/01/13 10:30:44;;;;;;;39.85;17.60;;;;;;;-2.87;96.74;99521.59;4860563;28;20053;-59
2023/01/13 10:34:04;;;;;;;40.78;16.98;;;;;;;-2.83;97.15;99518.28;4862366;28;20053;-60
2023/01/13 10:40:20;;;;;;;32.05;17.58;;;;;;;-2.68;97.18;99534.00;4878600;28;20307;-59
2023/01/13 10:50:19;;;;;;;35.92;17.25;;;;;;;-2.65;96.76;99518.72;4843443;28;20053;-60
2023/01/13 10:53:01;;;;;;;36.03;17.73;;;;;;;-2.75;96.27;99521.91;4845520;28;20075;-60
2023/01/13 10:56:02;;;;;;;51.05;18.88;;;;;;;-2.79;96.20;99525.22;4860335;28;20236;-60
2023/01/13 10:58:34;;;;;;;61.50;25.35;;;;;;;-2.74;96.59;99522.78;4802624;28;20199;-60
2023/01/13 11:01:08;;;;;;;51.50;21.85;;;;;;;-2.57;96.91;99525.72;4808131;28;20062;-60
2023/01/13 11:03:43;;;;;;;38.10;16.38;;;;;;;-2.46;97.29;99534.56;4802209;28;20746;-60
2023/01/13 11:06:22;;;;;;;37.10;16.75;;;;;;;-2.38;97.21;99538.16;4795064;28;20702;-60
2023/01/13 11:08:57;;;;;;;34.17;15.07;;;;;;;-2.33;97.21;99539.13;4794018;28;20047;-60
2023/01/13 11:11:46;;;;;;;36.72;14.80;;;;;;;-2.21;97.34;99552.22;4802480;28;20082;-60
2023/01/13 11:14:35;;;;;;;34.50;15.02;;;;;;;-2.16;97.30;99549.75;4791851;28;20051;-60
2023/01/13 11:17:29;;;;;;;32.25;15.38;;;;;;;-2.08;96.60;99578.94;4791173;28;20062;-59
2023/01/13 11:20:15;;;;;;;33.05;15.50;;;;;;;-2.27;96.30;99541.84;4792067;28;20902;-60
2023/01/13 11:22:50;;;;;;;34.58;15.18;;;;;;;-2.10;96.29;99569.50;4811440;28;20506;-60
2023/01/13 11:25:31;;;;;;;34.70;15.48;;;;;;;-1.97;96.04;99576.66;4853609;28;20053;-59
2023/01/13 11:28:15;;;;;;;33.90;15.15;;;;;;;-1.98;95.55;99580.03;4844602;28;20148;-60
2023/01/13 11:30:52;;;;;;;33.65;15.60;;;;;;;-2.32;95.05;99556.22;4844862;28;20520;-59
2023/01/13 11:33:39;;;;;;;34.78;15.98;;;;;;;-1.95;95.33;99590.34;4852051;28;20469;-59
2023/01/13 11:36:15;;;;;;;35.78;15.57;;;;;;;-1.87;95.26;99601.66;4844626;28;20439;-58
2023/01/13 11:38:52;;;;;;;35.75;16.33;;;;;;;-1.85;95.40;99597.41;4846580;28;20057;-59
2023/01/13 11:41:33;;;;;;;49.65;23.60;;;;;;;-2.04;94.41;99597.81;4853537;28;20063;-58
2023/01/13 11:44:18;;;;;;;43.50;21.80;;;;;;;-2.27;95.21;99536.72;4847866;28;20535;-58
2023/01/13 11:46:52;;;;;;;36.40;16.60;;;;;;;-1.78;95.51;99609.50;4849547;28;20054;-58
2023/01/13 11:49:27;;;;;;;37.42;17.70;;;;;;;-2.10;95.42;99523.44;4851703;28;20054;-58
2023/01/13 11:52:05;;;;;;;43.92;20.45;;;;;;;-1.67;95.29;99560.22;4855990;28;20053;-58
2023/01/13 11:55:10;;;;;;;35.53;18.23;;;;;;;-1.24;94.90;99617.50;4846141;28;20116;-59
2023/01/13 11:58:05;;;;;;;31.75;16.85;;;;;;;-1.28;93.22;99614.00;4792879;28;20065;-58
2023/01/13 12:00:56;;;;;;;35.08;15.32;;;;;;;-1.36;92.75;99624.09;4777342;28;20184;-58
2023/01/13 12:03:39;;;;;;;31.05;15.05;;;;;;;-1.76;92.18;99556.63;4786613;28;20057;-58
2023/01/13 12:06:23;;;;;;;35.72;16.15;;;;;;;-1.43;91.91;99622.22;4787735;28;20055;-59
2023/01/13 12:09:25;;;;;;;29.17;14.57;;;;;;;-1.50;91.75;99607.56;4787570;28;20050;-58
2023/01/13 12:12:21;;;;;;;34.53;15.93;;;;;;;-1.42;91.65;99631.66;4784337;28;20062;-60
2023/01/13 12:15:09;;;;;;;38.72;15.77;;;;;;;-1.40;91.15;99641.94;4785046;28;20057;-59
2023/01/13 12:17:57;;;;;;;30.20;13.32;;;;;;;-1.40;89.50;99647.94;4788852;28;20045;-59
2023/01/13 12:20:39;;;;;;;26.85;12.10;;;;;;;-1.34;88.14;99648.06;4778265;28;20046;-59
2023/01/13 12:23:21;;;;;;;26.70;11.50;;;;;;;-1.22;87.48;99661.97;4837490;28;20107;-60
2023/01/13 12:26:00;;;;;;;25.15;11.52;;;;;;;-1.32;85.39;99623.34;4847995;28;20054;-59
2023/01/13 12:28:45;;;;;;;24.38;11.32;;;;;;;-1.02;84.74;99650.44;4855265;28;20156;-60
2023/01/13 12:31:19;;;;;;;28.20;12.35;;;;;;;-1.02;84.92;99655.56;4844106;28;20479;-60
2023/01/13 12:38:26;;;;;;;22.15;11.00;;;;;;;-1.47;82.68;99607.66;4813465;28;20067;-60
2023/01/13 12:41:07;;;;;;;19.38;10.60;;;;;;;-1.14;82.87;99675.84;4855190;28;20045;-59
2023/01/13 12:46:56;;;;;;;28.50;12.63;;;;;;;-1.32;84.17;99702.81;4832306;28;20104;-60
2023/01/13 12:49:44;;;;;;;28.13;10.40;;;;;;;-1.46;82.71;99703.31;4845337;28;20237;-59
2023/01/13 12:52:18;;;;;;;24.77;12.60;;;;;;;-1.88;83.36;99647.69;4841768;28;20049;-60
2023/01/13 12:55:15;;;;;;;25.33;11.57;;;;;;;-1.51;84.99;99716.00;4866802;28;20440;-60
2023/01/13 12:58:16;;;;;;;29.35;12.65;;;;;;;-1.55;85.58;99729.56;4857479;28;20046;-60
2023/01/13 13:01:00;;;;;;;17.20;9.32;;;;;;;-1.72;81.63;99744.56;4851010;28;20060;-60
2023/01/13 13:03:36;;;;;;;26.30;13.70;;;;;;;-1.82;81.13;99751.16;4842859;28;20215;-60
2023/01/13 13:06:18;;;;;;;32.03;14.60;;;;;;;-2.02;79.96;99739.50;4845029;28;20054;-58
2023/01/13 13:09:00;;;;;;;27.98;13.25;;;;;;;-2.18;80.44;99744.22;4842377;28;20141;-59
2023/01/13 13:15:20;;;;;;;32.63;15.02;;;;;;;-2.73;79.27;99709.47;4837937;28;20100;-58
2023/01/13 13:22:17;;;;;;;36.83;16.20;;;;;;;-2.59;72.48;99808.78;4852893;28;20522;-58
2023/01/13 13:25:30;;;;;;;28.00;14.27;;;;;;;-2.74;70.87;99807.50;4860346;28;20106;-59
2023/01/13 13:28:34;;;;;;;30.33;15.70;;;;;;;-2.85;70.83;99806.28;4858498;28;20372;-58
2023/01/13 13:32:01;;;;;;;28.98;13.82;;;;;;;-2.90;70.85;99810.41;4856738;28;20450;-58
2023/01/13 13:47:36;;;;;;;23.17;11.18;;;;;;;-3.16;69.41;99802.81;4825420;28;20175;-59
2023/01/13 13:50:36;;;;;;;32.60;16.05;;;;;;;-3.16;69.50;99805.34;4780766;28;20137;-59
2023/01/13 13:53:11;;;;;;;42.35;18.58;;;;;;;-3.39;68.74;99793.56;4811036;28;20051;-59
2023/01/13 13:56:46;;;;;;;35.28;16.98;;;;;;;-3.36;68.50;99824.31;4788268;28;20107;-59
2023/01/13 14:04:39;;;;;;;27.05;14.65;;;;;;;-3.49;67.47;99830.69;4800072;28;20058;-58
2023/01/13 14:07:53;;;;;;;28.50;15.52;;;;;;;-3.69;67.20;99822.38;4785676;29;20053;-59
2023/01/13 14:10:38;;;;;;;35.67;14.85;;;;;;;-3.72;67.13;99863.09;4728386;29;20058;-58
2023/01/13 14:13:33;;;;;;;29.58;13.38;;;;;;;-3.79;66.89;99850.97;4750384;29;20066;-60
2023/01/13 14:20:37;;;;;;;29.05;12.98;;;;;;;-4.11;66.69;99837.94;4745366;29;20075;-60
2023/01/13 14:28:00;;;;;;;30.83;14.00;;;;;;;-4.11;67.09;99873.66;4756208;29;20487;-59
2023/01/13 14:31:23;;;;;;;34.90;16.85;;;;;;;-4.18;66.46;99867.47;4688431;29;20045;-59
2023/01/13 14:49:36;;;;;;;31.73;14.00;;;;;;;-4.43;76.16;99885.22;4666170;29;20115;-58
2023/01/13 15:15:05;;;;;;;30.23;14.80;;;;;;;-4.52;75.93;99911.25;4494834;30;20103;-57
2023/01/13 15:18:47;;;;;;;30.88;14.07;;;;;;;-4.56;75.21;99919.59;4589408;30;20060;-58
2023/01/13 15:21:35;;;;;;;33.97;15.02;;;;;;;-4.65;74.81;99921.78;4629971;29;20124;-60
2023/01/13 15:28:31;;;;;;;35.35;16.35;;;;;;;-4.86;74.50;99909.94;4606349;30;20067;-59
2023/01/13 15:31:19;;;;;;;36.17;15.13;;;;;;;-4.65;74.59;99960.03;4603528;29;20487;-58
2023/01/13 15:34:21;;;;;;;36.72;15.98;;;;;;;-4.66;74.29;99968.50;4630882;29;20407;-59